Indianapolis, Indiana
Traffic Map
Current Weather Conditions
Indianapolis, Indiana
Broken Clouds
Broken Clouds
22°
Feels Like: 13°
Wind Chill: 13° Ceiling: 9000
Heat Index: 22° Visibility: 10mi
Dew Point: 15° Wind: 8mph
Humidity: 75% Direction: 250° (WSW)
Pressure: 30.54in Gusts: 0mph
Raw Report DataKIND 101354Z 25007KT 10SM BKN090 M06/M09 A3054 RMK AO2 SLP353 T10561094
Traffic Incident Summary
Active as of:
Severity:
Category:
InformationThere was an issue retrieving the traffic information for this location. Please try a different location or try again shortly.
Advertisements
Track Severe Weather on mobile